Time;durP1;ratioP1;P1;durP2;ratioP2;P2;SDS_P1;SDS_P2;PMS_P1;PMS_P2;Temp;Humidity;BMP_temperature;BMP_pressure;BME280_temperature;BME280_humidity;BME280_pressure;Samples;Min_cycle;Max_cycle;Signal;HPM_P1;HPM_P2
2022/05/07 00:02:06;;;;;;;8.52;6.45;;;;;;;10.27;64.50;101667.69;7392545;19;20035;-64
2022/05/07 00:04:37;;;;;;;8.82;6.40;;;;;;;10.24;64.61;101673.81;7395507;19;20023;-64
2022/05/07 00:07:06;;;;;;;11.13;7.18;;;;;;;10.23;64.77;101673.84;7402283;19;20421;-64
2022/05/07 00:09:35;;;;;;;13.18;8.93;;;;;;;10.21;64.72;101671.22;7401793;19;20014;-64
2022/05/07 00:12:04;;;;;;;15.23;11.80;;;;;;;10.18;64.72;101673.00;7401650;19;20019;-64
2022/05/07 00:14:32;;;;;;;12.77;11.07;;;;;;;10.16;64.85;101666.88;7400231;19;20015;-65
2022/05/07 00:19:43;;;;;;;11.13;8.98;;;;;;;10.12;65.14;101673.88;7402231;19;20015;-65
2022/05/07 00:22:12;;;;;;;9.30;7.50;;;;;;;10.10;65.09;101673.88;7400348;19;20014;-74
2022/05/07 00:24:40;;;;;;;8.85;7.00;;;;;;;10.08;65.30;101670.41;7400428;19;20026;-65
2022/05/07 00:27:08;;;;;;;13.10;7.63;;;;;;;10.07;65.18;101678.28;7401176;19;20036;-65
2022/05/07 00:29:36;;;;;;;7.60;6.75;;;;;;;10.05;65.25;101669.56;7401051;19;20074;-65
2022/05/07 00:32:05;;;;;;;10.38;6.93;;;;;;;10.04;65.46;101662.56;7401071;19;20033;-65
2022/05/07 00:34:33;;;;;;;11.98;8.10;;;;;;;10.02;65.56;101666.94;7398264;19;20018;-65
2022/05/07 00:37:04;;;;;;;10.90;7.82;;;;;;;9.98;65.59;101663.44;7398360;19;20031;-65
2022/05/07 00:39:32;;;;;;;12.55;7.72;;;;;;;9.97;65.58;101666.09;7401226;19;20038;-65
2022/05/07 00:42:05;;;;;;;9.88;6.38;;;;;;;9.93;65.73;101663.50;7398227;19;20476;-65
2022/05/07 00:44:34;;;;;;;8.05;6.68;;;;;;;9.91;65.75;101657.38;7398270;19;20022;-65
2022/05/07 00:47:20;;;;;;;8.73;7.07;;;;;;;9.91;65.83;101664.38;7398615;19;20018;-65
2022/05/07 00:49:51;;;;;;;10.05;6.80;;;;;;;9.88;65.68;101659.13;7398319;19;20023;-65
2022/05/07 00:52:19;;;;;;;7.47;6.10;;;;;;;9.85;65.78;101656.53;7400545;19;20018;-65
2022/05/07 00:54:49;;;;;;;7.90;6.53;;;;;;;9.81;65.56;101658.28;7397689;19;20016;-65
2022/05/07 00:57:18;;;;;;;9.23;6.97;;;;;;;9.80;65.81;101655.69;7399790;19;20422;-65
2022/05/07 00:59:47;;;;;;;8.85;6.80;;;;;;;9.78;65.98;101651.31;7400069;19;20026;-65
2022/05/07 01:02:15;;;;;;;8.73;6.15;;;;;;;9.75;66.05;101646.06;7397499;19;20010;-65
2022/05/07 01:04:43;;;;;;;9.35;5.85;;;;;;;9.74;66.00;101649.59;7397046;19;20398;-65
2022/05/07 01:07:11;;;;;;;8.45;5.60;;;;;;;9.73;66.26;101642.59;7399940;19;20023;-65
2022/05/07 01:09:42;;;;;;;7.35;6.10;;;;;;;9.72;66.40;101646.09;7399505;19;20391;-65
2022/05/07 01:12:11;;;;;;;7.82;5.80;;;;;;;9.71;66.31;101644.34;7397884;19;20019;-65
2022/05/07 01:14:39;;;;;;;9.35;5.88;;;;;;;9.70;66.39;101650.47;7398834;19;20022;-65
2022/05/07 01:17:09;;;;;;;8.57;6.18;;;;;;;9.69;66.24;101634.75;7396785;19;20544;-65
2022/05/07 01:19:37;;;;;;;11.15;6.10;;;;;;;9.69;66.32;101637.38;7397046;19;20018;-65
2022/05/07 01:22:08;;;;;;;7.00;6.28;;;;;;;9.69;66.47;101643.50;7397482;19;20031;-65
2022/05/07 01:24:36;;;;;;;7.15;5.88;;;;;;;9.68;66.37;101643.47;7398061;19;20031;-65
2022/05/07 01:27:05;;;;;;;9.15;7.22;;;;;;;9.66;66.51;101643.50;7398712;19;20430;-65
2022/05/07 01:29:33;;;;;;;7.57;6.22;;;;;;;9.65;66.49;101640.88;7399008;19;20071;-65
2022/05/07 01:32:01;;;;;;;10.13;6.75;;;;;;;9.65;66.42;101643.50;7399062;19;20010;-65
2022/05/07 01:34:29;;;;;;;7.57;6.63;;;;;;;9.63;66.50;101640.91;7396622;19;20022;-65
2022/05/07 01:36:57;;;;;;;7.30;6.60;;;;;;;9.62;66.55;101645.25;7398368;19;20422;-65
2022/05/07 01:39:28;;;;;;;7.95;5.82;;;;;;;9.61;66.67;101642.66;7396523;19;20039;-65
2022/05/07 01:41:56;;;;;;;7.78;6.35;;;;;;;9.62;66.71;101647.00;7397619;19;20031;-65
2022/05/07 01:44:24;;;;;;;6.82;6.13;;;;;;;9.62;66.82;101640.00;7397182;19;20368;-65
2022/05/07 01:49:33;;;;;;;8.93;6.53;;;;;;;9.64;66.97;101640.00;7398617;19;20026;-65
2022/05/07 01:52:01;;;;;;;7.53;5.90;;;;;;;9.65;67.03;101646.13;7396709;19;20032;-65
2022/05/07 01:54:32;;;;;;;10.57;6.50;;;;;;;9.65;67.14;101641.75;7396075;19;20020;-65
2022/05/07 01:57:00;;;;;;;7.70;5.95;;;;;;;9.65;67.24;101641.75;7396477;19;20041;-65
2022/05/07 01:59:28;;;;;;;8.65;6.88;;;;;;;9.67;67.27;101639.13;7397779;19;20422;-65
2022/05/07 02:01:56;;;;;;;7.32;6.47;;;;;;;9.69;67.34;101634.75;7396674;19;20018;-65
2022/05/07 02:04:24;;;;;;;8.32;6.45;;;;;;;9.71;67.22;101643.50;7396634;19;20501;-65
2022/05/07 02:06:53;;;;;;;7.00;5.93;;;;;;;9.74;67.25;101635.59;7397946;19;20142;-65
2022/05/07 02:09:21;;;;;;;7.30;5.80;;;;;;;9.75;67.35;101632.97;7397641;19;20019;-65
2022/05/07 02:11:52;;;;;;;9.60;6.65;;;;;;;9.78;67.28;101632.09;7395784;19;20027;-65
2022/05/07 02:14:20;;;;;;;7.30;6.57;;;;;;;9.81;67.29;101632.09;7395784;19;20031;-65
2022/05/07 02:16:48;;;;;;;8.18;6.75;;;;;;;9.83;67.27;101626.84;7395121;19;20484;-65
2022/05/07 02:19:16;;;;;;;7.03;6.22;;;;;;;9.86;67.29;101632.94;7397008;19;20476;-65
2022/05/07 02:21:44;;;;;;;7.20;6.32;;;;;;;9.88;67.32;101631.19;7395992;19;20430;-65
2022/05/07 02:24:12;;;;;;;6.88;5.72;;;;;;;9.90;67.28;101626.78;7395358;19;20112;-65
2022/05/07 02:26:41;;;;;;;8.23;6.65;;;;;;;9.93;67.38;101621.56;7395791;19;20018;-65
2022/05/07 02:29:14;;;;;;;8.70;5.95;;;;;;;9.94;67.46;101628.53;7395246;19;20033;-65
2022/05/07 02:32:03;;;;;;;6.88;6.20;;;;;;;9.97;67.30;101626.75;7397442;19;20014;-65
2022/05/07 02:34:31;;;;;;;7.45;6.60;;;;;;;9.99;67.29;101627.63;7395543;19;20011;-65
2022/05/07 02:36:59;;;;;;;7.05;6.20;;;;;;;10.00;67.30;101638.13;7396558;19;20026;-65
2022/05/07 02:39:27;;;;;;;8.10;6.10;;;;;;;10.02;67.32;101631.13;7394694;19;20018;-65
2022/05/07 02:44:39;;;;;;;7.90;5.95;;;;;;;10.07;67.29;101624.09;7395765;19;20545;-65
2022/05/07 02:47:07;;;;;;;9.63;6.43;;;;;;;10.09;67.29;101631.94;7394318;19;20011;-65
2022/05/07 02:49:36;;;;;;;9.32;6.97;;;;;;;10.11;67.27;101630.19;7396465;19;20031;-65
2022/05/07 02:52:04;;;;;;;9.55;7.38;;;;;;;10.13;67.32;101632.81;7394242;19;20413;-65
2022/05/07 02:54:32;;;;;;;9.27;7.45;;;;;;;10.14;67.13;101629.31;7394501;19;20014;-65
2022/05/07 02:57:01;;;;;;;12.05;6.78;;;;;;;10.15;67.25;101637.16;7394502;19;20018;-65
2022/05/07 02:59:29;;;;;;;10.98;8.05;;;;;;;10.15;67.30;101637.16;7395971;19;20014;-65
2022/05/07 03:02:00;;;;;;;9.55;7.78;;;;;;;10.16;67.08;101633.66;7395067;19;20038;-65
2022/05/07 03:04:28;;;;;;;10.18;7.80;;;;;;;10.16;67.35;101636.28;7395373;19;20014;-65
2022/05/07 03:06:56;;;;;;;9.65;8.13;;;;;;;10.17;67.07;101632.75;7395694;19;20022;-65
2022/05/07 03:09:25;;;;;;;9.70;7.72;;;;;;;10.20;67.22;101637.16;7394044;19;20371;-65
2022/05/07 03:11:53;;;;;;;12.93;8.90;;;;;;;10.21;67.27;101637.13;7395570;19;20032;-65
2022/05/07 03:14:21;;;;;;;10.25;8.32;;;;;;;10.23;67.22;101631.88;7394910;19;20022;-65
2022/05/07 03:16:49;;;;;;;9.77;8.25;;;;;;;10.24;67.29;101641.50;7395329;19;20440;-65
2022/05/07 03:19:20;;;;;;;12.15;8.23;;;;;;;10.25;67.26;101635.38;7395530;19;20038;-65
2022/05/07 03:21:49;;;;;;;10.18;7.97;;;;;;;10.26;67.10;101634.47;7393800;19;20022;-65
2022/05/07 03:24:17;;;;;;;12.02;7.93;;;;;;;10.27;67.22;101630.97;7393547;19;20019;-65
2022/05/07 03:26:45;;;;;;;11.02;7.60;;;;;;;10.29;67.06;101634.47;7395326;19;20022;-65
2022/05/07 03:29:13;;;;;;;9.70;8.02;;;;;;;10.31;67.12;101631.81;7393552;19;20022;-65
2022/05/07 03:31:42;;;;;;;11.80;9.00;;;;;;;10.32;67.05;101628.31;7393084;19;20019;-65
2022/05/07 03:34:11;;;;;;;15.27;9.32;;;;;;;10.33;67.07;101627.44;7394370;19;20018;-65
2022/05/07 03:36:42;;;;;;;15.15;9.30;;;;;;;10.35;67.01;101628.28;7393215;19;20025;-65
2022/05/07 03:39:10;;;;;;;13.13;9.85;;;;;;;10.36;66.84;101617.84;7397717;19;20025;-65
2022/05/07 03:41:38;;;;;;;12.90;9.70;;;;;;;10.38;66.82;101623.94;7399413;19;20018;-65
2022/05/07 03:44:06;;;;;;;12.13;9.30;;;;;;;10.40;66.80;101622.19;7401470;19;20023;-65
2022/05/07 03:46:34;;;;;;;13.40;9.35;;;;;;;10.41;66.70;101612.53;7401412;19;20011;-65
2022/05/07 03:49:03;;;;;;;20.35;10.02;;;;;;;10.46;66.80;101607.28;7399044;19;20425;-65
2022/05/07 03:53:29;;;;;;;20.08;11.32;;;;;;;10.48;66.78;101602.91;7402447;19;20082;-64
2022/05/07 03:54:19;;;;;;;24.98;11.57;;;;;;;10.50;66.90;101607.25;7400479;19;20020;-65
2022/05/07 03:56:48;;;;;;;18.95;10.52;;;;;;;10.53;66.79;101615.09;7402072;19;20038;-64
2022/05/07 03:59:16;;;;;;;14.32;8.82;;;;;;;10.55;66.75;101615.94;7402233;19;20026;-65
2022/05/07 04:01:44;;;;;;;15.68;8.75;;;;;;;10.57;66.84;101618.56;7399235;19;20039;-65
2022/05/07 04:04:12;;;;;;;16.95;9.70;;;;;;;10.61;66.82;101627.28;7400314;19;20338;-65
2022/05/07 04:06:40;;;;;;;18.88;9.20;;;;;;;10.62;66.64;101619.38;7401820;19;20031;-64
2022/05/07 04:09:08;;;;;;;21.75;10.05;;;;;;;10.64;66.56;101627.25;7401638;19;20018;-65
2022/05/07 04:11:39;;;;;;;16.92;9.73;;;;;;;10.66;66.46;101628.13;7401586;19;20015;-65
2022/05/07 04:14:07;;;;;;;17.00;9.15;;;;;;;10.69;66.42;101628.97;7398860;19;20035;-65
2022/05/07 04:16:35;;;;;;;14.68;9.93;;;;;;;10.73;66.51;101629.81;7398754;19;20035;-65
2022/05/07 04:19:03;;;;;;;13.68;9.63;;;;;;;10.74;66.38;101629.78;7398503;19;20027;-65
2022/05/07 04:21:32;;;;;;;12.07;8.68;;;;;;;10.78;66.46;101627.13;7400659;19;20028;-65
2022/05/07 04:24:01;;;;;;;13.70;8.95;;;;;;;10.79;66.36;101629.72;7398865;19;20022;-64
2022/05/07 04:26:29;;;;;;;12.80;9.05;;;;;;;10.83;66.28;101634.09;7401912;19;20011;-65
2022/05/07 04:28:59;;;;;;;13.18;9.18;;;;;;;10.86;66.24;101631.44;7400971;19;20031;-64
2022/05/07 04:31:27;;;;;;;16.27;9.88;;;;;;;10.90;66.23;101629.66;7400640;19;20472;-64
2022/05/07 04:33:56;;;;;;;19.35;13.32;;;;;;;10.93;66.03;101640.13;7398168;19;20033;-64
2022/05/07 04:36:25;;;;;;;37.22;26.13;;;;;;;10.96;66.06;101637.47;7398072;19;20014;-64
2022/05/07 04:38:53;;;;;;;40.42;30.33;;;;;;;10.98;66.00;101630.47;7400582;19;20022;-64
2022/05/07 04:41:21;;;;;;;20.30;12.60;;;;;;;11.01;65.99;101637.44;7398038;19;20015;-63
2022/05/07 04:43:50;;;;;;;14.10;10.48;;;;;;;11.02;65.89;101634.81;7400019;19;20018;-63
2022/05/07 04:46:20;;;;;;;22.08;17.00;;;;;;;11.04;65.96;101634.78;7399721;19;20041;-64
2022/05/07 04:48:55;;;;;;;28.88;21.42;;;;;;;11.06;65.91;101639.13;7398352;19;20081;-64
2022/05/07 04:51:23;;;;;;;24.90;19.45;;;;;;;11.08;65.87;101632.13;7397278;19;20040;-64
2022/05/07 04:53:51;;;;;;;28.38;22.05;;;;;;;11.11;65.90;101633.84;7397541;19;20023;-64
2022/05/07 04:56:21;;;;;;;29.90;22.08;;;;;;;11.13;65.81;101639.94;7400036;19;20023;-65
2022/05/07 04:58:49;;;;;;;28.70;20.58;;;;;;;11.17;65.63;101635.53;7399999;19;20015;-64
2022/05/07 05:01:20;;;;;;;29.02;19.73;;;;;;;11.19;65.81;101636.38;7397630;19;20018;-64
2022/05/07 05:03:48;;;;;;;32.67;21.15;;;;;;;11.22;65.73;101641.59;7397358;19;20034;-64
2022/05/07 05:06:22;;;;;;;31.00;20.25;;;;;;;11.25;65.75;101646.84;7399777;19;20039;-63
2022/05/07 05:08:50;;;;;;;27.27;18.52;;;;;;;11.28;65.70;101643.31;7399690;19;20403;-64
2022/05/07 05:11:18;;;;;;;28.15;17.55;;;;;;;11.29;65.64;101645.06;7399528;19;20018;-64
2022/05/07 05:13:47;;;;;;;27.67;15.10;;;;;;;11.31;65.63;101645.88;7398977;19;20038;-64
2022/05/07 05:16:15;;;;;;;21.75;13.45;;;;;;;11.34;65.64;101648.50;7399546;19;20022;-64
2022/05/07 05:18:46;;;;;;;16.48;11.40;;;;;;;11.37;65.66;101648.47;7398766;19;20018;-64
2022/05/07 05:21:14;;;;;;;17.70;10.38;;;;;;;11.40;65.63;101651.06;7397495;19;20014;-64
2022/05/07 05:23:42;;;;;;;14.07;10.60;;;;;;;11.44;65.37;101650.16;7396729;19;20023;-63
2022/05/07 05:26:10;;;;;;;17.05;11.80;;;;;;;11.46;65.37;101653.63;7399273;19;20019;-64
2022/05/07 05:28:39;;;;;;;17.30;11.32;;;;;;;11.49;65.31;101643.06;7398952;19;20022;-64
2022/05/07 05:31:08;;;;;;;18.13;11.90;;;;;;;11.54;65.34;101646.53;7398389;19;20018;-63
2022/05/07 05:33:36;;;;;;;21.17;12.65;;;;;;;11.59;65.38;101651.72;7396107;19;20035;-63
2022/05/07 05:36:07;;;;;;;18.48;12.50;;;;;;;11.63;65.32;101660.47;7397141;19;20032;-63
2022/05/07 05:38:35;;;;;;;17.10;11.85;;;;;;;11.67;65.13;101660.38;7398751;19;20019;-64
2022/05/07 05:41:03;;;;;;;17.35;11.85;;;;;;;11.72;65.25;101665.59;7398058;19;20019;-63
2022/05/07 05:43:32;;;;;;;19.40;12.38;;;;;;;11.77;65.19;101657.66;7395572;19;20039;-64
2022/05/07 05:46:00;;;;;;;16.90;12.90;;;;;;;11.81;64.95;101659.38;7397889;19;20076;-64
2022/05/07 05:48:29;;;;;;;15.15;11.60;;;;;;;11.88;64.99;101655.78;7395437;19;20023;-64
2022/05/07 05:50:57;;;;;;;18.63;10.93;;;;;;;11.94;64.84;101658.31;7395887;19;20014;-64
2022/05/07 05:53:28;;;;;;;13.73;10.57;;;;;;;12.01;64.73;101656.50;7397870;19;20027;-62
2022/05/07 05:55:56;;;;;;;12.68;9.75;;;;;;;12.08;64.57;101657.28;7398533;19;20010;-63
2022/05/07 05:58:24;;;;;;;14.88;9.82;;;;;;;12.16;64.37;101661.56;7395495;19;20031;-63
2022/05/07 06:00:56;;;;;;;14.45;9.68;;;;;;;12.24;64.15;101665.84;7397176;19;20028;-63
2022/05/07 06:03:25;;;;;;;14.77;8.82;;;;;;;12.31;63.73;101668.38;7394525;19;20018;-64
2022/05/07 06:05:53;;;;;;;12.18;8.52;;;;;;;12.39;63.64;101663.84;7396840;19;20015;-63
2022/05/07 06:08:21;;;;;;;13.13;8.55;;;;;;;12.46;63.32;101662.03;7396230;19;20011;-64
2022/05/07 06:10:54;;;;;;;11.52;7.60;;;;;;;12.54;63.19;101665.41;7397610;19;20014;-63
2022/05/07 06:13:23;;;;;;;11.68;8.77;;;;;;;12.62;63.27;101660.00;7395780;19;20019;-64
2022/05/07 06:15:51;;;;;;;11.75;9.00;;;;;;;12.69;63.01;101660.81;7396232;19;20035;-63
2022/05/07 06:18:20;;;;;;;12.18;8.90;;;;;;;12.77;63.17;101658.91;7395437;19;20015;-63
2022/05/07 06:20:48;;;;;;;11.88;8.90;;;;;;;12.84;62.78;101657.91;7395386;19;20022;-63
2022/05/07 06:23:17;;;;;;;13.23;8.40;;;;;;;12.92;62.72;101663.03;7394838;19;20041;-63
2022/05/07 06:28:28;;;;;;;16.52;9.13;;;;;;;13.09;62.31;101659.25;7396654;19;20010;-64
2022/05/07 06:30:57;;;;;;;11.32;8.30;;;;;;;13.17;62.23;101657.38;7397205;19;20022;-64
2022/05/07 06:33:25;;;;;;;10.73;7.75;;;;;;;13.25;61.86;101657.22;7394528;19;20031;-64
2022/05/07 06:35:53;;;;;;;10.70;7.60;;;;;;;13.32;61.71;101653.56;7396469;19;20018;-64
2022/05/07 06:38:22;;;;;;;9.18;7.10;;;;;;;13.41;61.60;101657.81;7394851;19;20031;-64
2022/05/07 06:40:50;;;;;;;9.35;7.80;;;;;;;13.50;61.22;101660.31;7396171;19;20050;-64
2022/05/07 06:43:19;;;;;;;12.63;7.68;;;;;;;13.59;61.40;101656.63;7394694;19;20418;-64
2022/05/07 06:45:49;;;;;;;8.50;7.40;;;;;;;13.67;60.82;101658.19;7393936;19;20472;-64
2022/05/07 06:48:17;;;;;;;9.18;7.30;;;;;;;13.76;60.78;101654.50;7394488;19;20011;-64
2022/05/07 06:50:46;;;;;;;9.27;7.47;;;;;;;13.85;60.43;101659.59;7396338;19;20017;-65
2022/05/07 06:53:14;;;;;;;8.40;6.72;;;;;;;13.95;59.97;101662.91;7394530;19;20022;-65
2022/05/07 06:58:22;;;;;;;10.73;7.85;;;;;;;14.13;59.84;101663.41;7393825;19;20375;-64
2022/05/07 07:00:53;;;;;;;9.73;8.40;;;;;;;14.21;59.67;101661.47;7394275;19;20022;-65
2022/05/07 07:03:21;;;;;;;12.57;7.95;;;;;;;14.31;59.47;101664.78;7394495;19;20026;-64
2022/05/07 07:05:50;;;;;;;10.95;7.72;;;;;;;14.40;59.35;101664.53;7395240;19;20472;-63
2022/05/07 07:08:19;;;;;;;13.38;8.10;;;;;;;14.49;59.09;101661.72;7395733;19;20018;-65
2022/05/07 07:10:47;;;;;;;9.32;7.63;;;;;;;14.59;58.92;101658.84;7394495;19;20357;-64
2022/05/07 07:13:16;;;;;;;9.85;7.43;;;;;;;14.68;58.81;101657.78;7393460;19;20070;-65
2022/05/07 07:15:44;;;;;;;7.50;6.68;;;;;;;14.76;58.51;101654.06;7393953;19;20019;-64
2022/05/07 07:18:15;;;;;;;7.90;6.25;;;;;;;14.87;58.34;101658.19;7393144;19;20023;-64
2022/05/07 07:20:46;;;;;;;10.13;6.50;;;;;;;14.97;58.03;101662.34;7394099;19;20018;-64
2022/05/07 07:23:15;;;;;;;8.20;6.22;;;;;;;15.05;57.96;101657.75;7393331;19;20480;-64
2022/05/07 07:25:44;;;;;;;8.55;5.35;;;;;;;15.16;57.85;101660.09;7392743;19;20041;-64
2022/05/07 07:28:14;;;;;;;8.00;5.65;;;;;;;15.27;57.36;101657.16;7393968;19;20027;-65
2022/05/07 07:30:43;;;;;;;11.93;9.23;;;;;;;15.37;57.49;101658.66;7392547;19;20022;-65
2022/05/07 07:33:17;;;;;;;6.40;5.00;;;;;;;15.49;56.80;101657.44;7392705;19;20015;-64
2022/05/07 07:35:46;;;;;;;5.50;4.97;;;;;;;15.62;56.34;101660.63;7392708;19;20022;-65
2022/05/07 07:38:14;;;;;;;10.35;5.20;;;;;;;15.73;56.15;101658.53;7392682;19;20022;-65
2022/05/07 07:40:43;;;;;;;7.32;5.00;;;;;;;15.84;55.41;101660.88;7392891;19;20019;-67
2022/05/07 07:43:12;;;;;;;5.78;5.18;;;;;;;15.97;54.70;101658.75;7393782;19;20026;-66
2022/05/07 07:48:23;;;;;;;6.43;5.15;;;;;;;16.18;53.93;101654.59;7392746;19;20022;-64
2022/05/07 07:50:51;;;;;;;6.85;4.82;;;;;;;16.28;53.83;101652.53;7393038;19;20015;-64
2022/05/07 07:53:20;;;;;;;6.95;5.10;;;;;;;16.38;53.43;101650.47;7393989;19;20484;-65
2022/05/07 07:55:48;;;;;;;7.88;3.95;;;;;;;16.49;52.92;101645.69;7392385;19;20113;-64
2022/05/07 07:58:16;;;;;;;5.00;3.70;;;;;;;16.58;52.60;101645.38;7391922;19;20022;-64
2022/05/07 08:00:45;;;;;;;4.50;3.90;;;;;;;16.69;52.46;101642.38;7394044;19;20015;-64
2022/05/07 08:03:14;;;;;;;5.15;3.95;;;;;;;16.78;52.27;101644.72;7393301;19;20539;-65
2022/05/07 08:05:47;;;;;;;5.35;3.70;;;;;;;16.88;51.58;101642.66;7392745;19;20018;-65
2022/05/07 08:13:39;;;;;;;4.13;3.25;;;;;;;17.22;49.93;101640.63;7393293;19;20018;-65
2022/05/07 08:16:09;;;;;;;4.43;3.28;;;;;;;17.31;49.79;101645.59;7391899;19;20038;-64
2022/05/07 08:18:37;;;;;;;3.92;3.22;;;;;;;17.39;49.73;101632.94;7391843;19;20018;-64
2022/05/07 08:21:09;;;;;;;5.60;3.83;;;;;;;17.51;49.00;101644.03;7391630;19;20026;-65
2022/05/07 08:23:37;;;;;;;7.28;3.53;;;;;;;17.62;48.91;101644.50;7391864;19;20022;-64
2022/05/07 08:26:06;;;;;;;5.63;3.97;;;;;;;17.77;49.01;101636.88;7398485;19;20035;-65
2022/05/07 08:28:35;;;;;;;4.70;3.30;;;;;;;17.87;48.63;101638.28;7400530;19;20024;-65
2022/05/07 08:31:03;;;;;;;5.82;3.35;;;;;;;17.97;48.20;101637.03;7400323;19;20014;-66
2022/05/07 08:33:32;;;;;;;5.25;2.78;;;;;;;18.09;47.79;101637.47;7397361;19;20022;-65
2022/05/07 08:36:00;;;;;;;7.22;3.47;;;;;;;18.18;46.71;101632.66;7397776;19;20019;-64
2022/05/07 08:38:31;;;;;;;4.72;3.58;;;;;;;18.27;45.75;101639.38;7397010;19;20426;-65
2022/05/07 08:41:01;;;;;;;4.40;3.30;;;;;;;18.35;45.65;101634.63;7400705;19;20018;-66
2022/05/07 08:43:36;;;;;;;6.30;3.45;;;;;;;18.43;45.43;101630.81;7397514;19;20022;-65
2022/05/07 08:46:09;;;;;;;4.07;3.03;;;;;;;18.51;44.89;101629.56;7397561;19;20018;-64
2022/05/07 08:48:38;;;;;;;5.18;2.97;;;;;;;18.59;44.88;101623.94;7397416;19;20027;-65
2022/05/07 08:51:07;;;;;;;5.35;3.35;;;;;;;18.68;44.54;101623.56;7400028;19;20015;-64
2022/05/07 08:53:38;;;;;;;9.20;3.72;;;;;;;18.80;43.73;101622.16;7399575;19;20018;-64
2022/05/07 08:56:08;;;;;;;6.80;2.97;;;;;;;18.91;43.65;101627.06;7397786;19;20019;-64
2022/05/07 08:58:36;;;;;;;7.30;3.30;;;;;;;19.02;43.59;101627.47;7399703;19;20038;-64
2022/05/07 09:01:05;;;;;;;4.78;3.10;;;;;;;19.15;42.93;101624.28;7396960;19;20384;-64
2022/05/07 09:03:41;;;;;;;6.03;2.88;;;;;;;19.25;42.27;101630.91;7398638;19;20018;-64
2022/05/07 09:06:20;;;;;;;4.03;2.72;;;;;;;19.35;41.67;101629.56;7396767;19;20384;-64
2022/05/07 09:08:52;;;;;;;4.90;2.67;;;;;;;19.43;41.51;101634.53;7399442;19;20022;-66
2022/05/07 09:11:21;;;;;;;6.63;2.80;;;;;;;19.46;41.10;101626.44;7397397;19;20026;-64
2022/05/07 09:13:50;;;;;;;7.47;3.47;;;;;;;19.49;40.61;101628.09;7397012;19;20023;-64
2022/05/07 09:16:18;;;;;;;3.35;2.45;;;;;;;19.49;39.66;101631.59;7399185;19;20035;-65
2022/05/07 09:18:50;;;;;;;3.80;2.50;;;;;;;19.47;39.20;101629.94;7399311;19;20032;-65
2022/05/07 09:21:19;;;;;;;4.20;2.80;;;;;;;19.44;39.29;101635.44;7397287;19;20495;-65
2022/05/07 09:23:49;;;;;;;10.32;5.35;;;;;;;19.41;39.28;101622.25;7397776;19;20501;-65
2022/05/07 09:26:34;;;;;;;14.50;8.45;;;;;;;19.39;38.99;101626.78;7396720;19;20022;-65
2022/05/07 09:29:03;;;;;;;5.53;2.65;;;;;;;19.37;39.23;101624.16;7396772;19;20050;-65
2022/05/07 09:31:33;;;;;;;4.07;2.38;;;;;;;19.41;39.03;101624.91;7398750;19;20074;-65
2022/05/07 09:35:47;;;;;;;5.90;2.70;;;;;;;19.49;38.78;101625.44;7395860;19;20022;-65
2022/05/07 09:36:47;;;;;;;4.32;2.45;;;;;;;19.59;39.10;101616.09;7397832;19;20039;-64
2022/05/07 09:39:16;;;;;;;3.83;2.17;;;;;;;19.72;38.98;101610.22;7395793;19;20019;-65
2022/05/07 09:41:54;;;;;;;3.00;2.33;;;;;;;19.88;37.98;101613.03;7396282;19;20025;-66
2022/05/07 09:44:24;;;;;;;2.40;1.83;;;;;;;20.05;38.36;101604.25;7397029;19;20019;-64
2022/05/07 09:46:52;;;;;;;3.95;2.10;;;;;;;20.21;38.01;101599.91;7395414;19;20015;-65
2022/05/07 09:49:22;;;;;;;4.13;2.58;;;;;;;20.39;37.44;101598.13;7396066;19;20019;-66
2022/05/07 09:51:51;;;;;;;4.82;3.00;;;;;;;20.56;36.92;101601.75;7395422;19;20018;-65
2022/05/07 09:59:45;;;;;;;11.80;3.15;;;;;;;20.83;36.33;101603.03;7397800;19;20015;-67
2022/05/07 10:02:26;;;;;;;5.05;3.22;;;;;;;20.82;36.06;101595.13;7397431;19;20036;-66
2022/05/07 10:05:21;;;;;;;6.97;4.80;;;;;;;20.80;35.89;101599.66;7395492;19;20026;-66
2022/05/07 10:08:07;;;;;;;6.18;3.10;;;;;;;20.77;36.04;101600.69;7393142;19;20488;-66
2022/05/07 10:10:38;;;;;;;5.75;2.60;;;;;;;20.79;37.01;101598.81;7399339;19;20014;-65
2022/05/07 10:13:10;;;;;;;4.25;2.40;;;;;;;20.86;35.90;101590.50;7395187;19;20488;-65
2022/05/07 10:15:38;;;;;;;4.40;2.85;;;;;;;20.97;36.39;101599.66;7395695;19;20015;-66
2022/05/07 10:18:15;;;;;;;5.07;2.72;;;;;;;21.07;36.13;101588.53;7397211;19;20026;-66
2022/05/07 10:20:45;;;;;;;3.47;2.75;;;;;;;21.19;35.85;101587.00;7395585;19;20022;-65
2022/05/07 10:23:14;;;;;;;5.65;2.90;;;;;;;21.26;35.70;101583.94;7395326;19;20014;-65
2022/05/07 10:25:44;;;;;;;5.03;3.15;;;;;;;21.31;35.62;101578.34;7393667;19;20019;-65
2022/05/07 10:28:16;;;;;;;7.72;3.13;;;;;;;21.35;35.61;101571.91;7395885;19;20014;-65
2022/05/07 10:30:48;;;;;;;6.65;2.83;;;;;;;21.39;34.85;101583.28;7394491;19;20505;-65
2022/05/07 10:33:18;;;;;;;3.97;2.85;;;;;;;21.42;35.75;101575.09;7394718;19;20041;-65
2022/05/07 10:35:48;;;;;;;6.22;3.58;;;;;;;21.44;35.63;101581.22;7394220;19;20038;-65
2022/05/07 10:38:17;;;;;;;4.90;2.78;;;;;;;21.43;35.42;101580.38;7394570;19;20018;-64
2022/05/07 10:40:53;;;;;;;4.53;2.47;;;;;;;21.42;35.18;101578.63;7396517;19;20019;-64
2022/05/07 10:43:35;;;;;;;5.20;2.75;;;;;;;21.43;35.00;101576.81;7396167;19;20018;-65
2022/05/07 10:46:06;;;;;;;4.65;2.92;;;;;;;21.43;35.60;101583.03;7396743;19;20039;-65
2022/05/07 10:48:45;;;;;;;3.83;2.67;;;;;;;21.43;35.27;101577.69;7392994;19;20015;-65
2022/05/07 10:51:21;;;;;;;4.25;3.03;;;;;;;21.42;35.23;101572.41;7394580;19;20019;-65
2022/05/07 10:53:57;;;;;;;4.47;3.50;;;;;;;21.42;35.34;101573.28;7394439;19;20035;-67
2022/05/07 10:56:26;;;;;;;4.05;3.03;;;;;;;21.43;35.66;101575.03;7394129;19;20086;-65
2022/05/07 10:58:58;;;;;;;6.65;3.42;;;;;;;21.41;35.52;101573.38;7394421;19;20025;-65
2022/05/07 11:01:28;;;;;;;6.25;2.70;;;;;;;21.36;35.96;101573.63;7394687;19;20029;-64
2022/05/07 11:04:06;;;;;;;5.35;3.03;;;;;;;21.36;35.80;101568.28;7394625;19;20108;-64
2022/05/07 11:06:34;;;;;;;3.60;2.70;;;;;;;21.38;35.80;101563.75;7394273;19;20014;-66
2022/05/07 11:09:03;;;;;;;5.45;3.42;;;;;;;21.43;35.69;101569.69;7395782;19;20487;-66
2022/05/07 11:11:31;;;;;;;3.22;2.65;;;;;;;21.49;35.68;101568.47;7395557;19;20018;-65
2022/05/07 11:14:01;;;;;;;3.92;2.63;;;;;;;21.53;35.15;101558.50;7393832;19;20018;-66
2022/05/07 11:16:30;;;;;;;2.78;2.45;;;;;;;21.54;35.15;101560.22;7395473;19;20014;-66
2022/05/07 11:18:58;;;;;;;4.90;2.85;;;;;;;21.53;35.63;101559.34;7394877;19;20074;-66
2022/05/07 11:21:28;;;;;;;6.90;3.45;;;;;;;21.50;35.08;101559.53;7393494;19;20035;-65
2022/05/07 11:23:57;;;;;;;5.63;2.42;;;;;;;21.49;34.78;101557.78;7393600;19;20086;-65
2022/05/07 11:26:26;;;;;;;3.78;2.88;;;;;;;21.53;34.92;101553.16;7394734;19;20484;-66
2022/05/07 11:28:54;;;;;;;5.57;2.70;;;;;;;21.57;34.78;101558.28;7394782;19;20027;-65
2022/05/07 11:31:32;;;;;;;7.70;2.92;;;;;;;21.60;34.77;101552.75;7393002;19;20018;-65
2022/05/07 11:34:05;;;;;;;3.08;2.78;;;;;;;21.60;34.50;101555.44;7394314;19;20031;-66
2022/05/07 11:36:34;;;;;;;3.40;2.70;;;;;;;21.58;35.05;101554.63;7392920;19;20034;-65
2022/05/07 11:39:04;;;;;;;4.72;2.30;;;;;;;21.55;34.52;101552.16;7392618;19;20019;-65
2022/05/07 11:41:33;;;;;;;2.95;2.17;;;;;;;21.48;34.75;101559.63;7392908;19;20087;-67
2022/05/07 11:46:57;;;;;;;5.05;3.05;;;;;;;21.37;35.09;101547.78;7390489;19;20018;-65
2022/05/07 11:49:30;;;;;;;6.15;2.90;;;;;;;21.35;35.03;101558.56;7394558;19;20018;-65
2022/05/07 11:52:10;;;;;;;5.07;2.42;;;;;;;21.31;36.54;101552.50;7394153;19;20018;-65
2022/05/07 11:54:38;;;;;;;4.32;2.58;;;;;;;21.20;36.68;101551.38;7392881;19;20015;-65
2022/05/07 11:57:07;;;;;;;3.53;2.55;;;;;;;21.10;37.26;101556.34;7393286;19;20380;-64
2022/05/07 11:59:44;;;;;;;3.50;2.35;;;;;;;21.01;37.56;101556.84;7394909;19;20010;-66
2022/05/07 12:02:15;;;;;;;5.07;2.20;;;;;;;20.93;37.42;101555.44;7402086;19;20021;-66
2022/05/07 12:04:43;;;;;;;6.10;2.78;;;;;;;20.88;37.53;101556.59;7400256;19;20019;-65